Time;durP1;ratioP1;P1;durP2;ratioP2;P2;SDS_P1;SDS_P2;PMS_P1;PMS_P2;Temp;Humidity;BMP_temperature;BMP_pressure;BME280_temperature;BME280_humidity;BME280_pressure;Samples;Min_cycle;Max_cycle;Signal;HPM_P1;HPM_P2
2023/10/02 00:01:53;;;;;;;;;;;20.80;99.90;;;;;;5034968;28;19905;-71
2023/10/02 00:04:19;;;;;;;;;;;20.80;99.90;;;;;;5034520;28;19988;-70
2023/10/02 00:06:50;;;;;;;;;;;20.90;99.90;;;;;;5034556;28;19905;-71
2023/10/02 00:09:20;;;;;;;;;;;20.80;99.90;;;;;;5034264;28;19920;-70
2023/10/02 00:11:46;;;;;;;;;;;20.70;99.90;;;;;;5034715;28;19984;-70
2023/10/02 00:14:19;;;;;;;;;;;20.70;99.90;;;;;;5034433;28;19955;-70
2023/10/02 00:16:58;;;;;;;;;;;20.60;99.90;;;;;;5034550;28;20357;-70
2023/10/02 00:19:29;;;;;;;;;;;20.60;99.90;;;;;;5032920;28;20350;-70
2023/10/02 00:22:05;;;;;;;;;;;20.60;99.90;;;;;;5034424;28;20341;-70
2023/10/02 00:24:35;;;;;;;;;;;20.60;99.90;;;;;;5034034;28;19909;-70
2023/10/02 00:27:01;;;;;;;;;;;20.50;99.90;;;;;;5032622;28;20305;-70
2023/10/02 00:29:28;;;;;;;;;;;20.50;99.90;;;;;;5033666;28;19955;-70
2023/10/02 00:31:54;;;;;;;;;;;20.50;99.90;;;;;;5034019;28;19905;-70
2023/10/02 00:34:33;;;;;;;;;;;20.50;99.90;;;;;;5034570;28;19942;-70
2023/10/02 00:37:00;;;;;;;;;;;20.50;99.90;;;;;;5033981;28;20354;-71
2023/10/02 00:39:30;;;;;;;;;;;20.50;99.90;;;;;;5033810;28;19912;-70
2023/10/02 00:42:24;;;;;;;;;;;20.50;99.90;;;;;;5034291;28;19905;-69
2023/10/02 00:44:57;;;;;;;;;;;20.50;99.90;;;;;;5033873;28;20345;-70
2023/10/02 00:47:42;;;;;;;;;;;20.50;99.90;;;;;;5033913;28;19913;-71
2023/10/02 00:50:19;;;;;;;;;;;20.50;99.90;;;;;;5033519;28;19920;-71
2023/10/02 00:52:59;;;;;;;;;;;20.50;99.90;;;;;;5033628;28;19956;-70
2023/10/02 00:55:32;;;;;;;;;;;20.50;99.90;;;;;;5033597;28;19909;-71
2023/10/02 00:57:59;;;;;;;;;;;20.50;99.90;;;;;;5033655;28;19912;-70
2023/10/02 01:01:01;;;;;;;;;;;20.50;99.90;;;;;;5033530;28;20268;-71
2023/10/02 01:03:18;;;;;;;;;;;20.50;99.90;;;;;;5033076;28;19904;-70
2023/10/02 01:05:50;;;;;;;;;;;20.40;99.90;;;;;;5033899;28;19905;-71
2023/10/02 01:08:23;;;;;;;;;;;20.40;99.90;;;;;;5033140;28;19959;-69
2023/10/02 01:10:58;;;;;;;;;;;20.40;99.90;;;;;;5032034;28;20356;-70
2023/10/02 01:13:38;;;;;;;;;;;20.40;99.90;;;;;;5033573;28;20324;-69
2023/10/02 01:16:07;;;;;;;;;;;20.30;99.90;;;;;;5031845;28;19956;-71
2023/10/02 01:18:33;;;;;;;;;;;20.30;99.90;;;;;;5033329;28;19967;-70
2023/10/02 01:21:00;;;;;;;;;;;20.30;99.90;;;;;;5033430;28;20375;-70
2023/10/02 01:23:27;;;;;;;;;;;20.30;99.90;;;;;;5032876;28;19951;-70
2023/10/02 01:25:57;;;;;;;;;;;20.20;99.90;;;;;;5033155;28;19905;-70
2023/10/02 01:28:26;;;;;;;;;;;20.20;99.90;;;;;;5033152;28;19913;-71
2023/10/02 01:30:55;;;;;;;;;;;20.10;99.90;;;;;;5033090;28;19912;-71
2023/10/02 01:33:26;;;;;;;;;;;20.10;99.90;;;;;;5033064;28;19908;-71
2023/10/02 01:35:57;;;;;;;;;;;20.10;99.90;;;;;;5032820;28;20261;-70
2023/10/02 01:38:29;;;;;;;;;;;20.10;99.90;;;;;;5032764;28;20277;-70
2023/10/02 01:41:04;;;;;;;;;;;20.00;99.90;;;;;;5031771;28;19909;-71
2023/10/02 01:43:33;;;;;;;;;;;20.00;99.90;;;;;;5033120;28;19940;-70
2023/10/02 01:46:00;;;;;;;;;;;20.00;99.90;;;;;;5032709;28;20011;-70
2023/10/02 01:48:44;;;;;;;;;;;20.00;99.90;;;;;;5032483;28;19967;-70
2023/10/02 01:51:20;;;;;;;;;;;19.90;99.90;;;;;;5032485;28;19917;-70
2023/10/02 01:53:50;;;;;;;;;;;20.00;99.90;;;;;;5032596;28;19951;-69
2023/10/02 01:56:19;;;;;;;;;;;20.00;99.90;;;;;;5032481;28;19905;-69
2023/10/02 01:58:51;;;;;;;;;;;20.00;99.90;;;;;;5032596;28;19948;-69
2023/10/02 02:01:20;;;;;;;;;;;20.10;99.90;;;;;;5030984;28;20301;-71
2023/10/02 02:03:48;;;;;;;;;;;20.10;99.90;;;;;;5032309;28;20004;-70
2023/10/02 02:06:22;;;;;;;;;;;20.10;99.90;;;;;;5032234;28;20333;-70
2023/10/02 02:08:52;;;;;;;;;;;20.10;99.90;;;;;;5032038;28;19913;-70
2023/10/02 02:11:24;;;;;;;;;;;20.10;99.90;;;;;;5032304;28;19981;-70
2023/10/02 02:13:51;;;;;;;;;;;20.10;99.90;;;;;;5032439;28;19936;-70
2023/10/02 02:16:21;;;;;;;;;;;20.20;99.90;;;;;;5032130;28;19905;-69
2023/10/02 02:18:50;;;;;;;;;;;20.30;99.90;;;;;;5031991;28;19905;-70
2023/10/02 02:21:21;;;;;;;;;;;20.40;99.90;;;;;;5031924;28;19904;-69
2023/10/02 02:23:48;;;;;;;;;;;20.40;99.90;;;;;;5031840;28;19908;-71
2023/10/02 02:26:21;;;;;;;;;;;20.50;99.90;;;;;;5032469;28;20325;-69
2023/10/02 02:28:48;;;;;;;;;;;20.50;99.90;;;;;;5031829;28;19917;-69
2023/10/02 02:31:39;;;;;;;;;;;20.40;99.90;;;;;;5032287;28;19905;-70
2023/10/02 02:34:00;;;;;;;;;;;20.40;99.90;;;;;;5031631;28;20003;-70
2023/10/02 02:36:26;;;;;;;;;;;20.40;99.90;;;;;;5031872;28;19944;-70
2023/10/02 02:39:08;;;;;;;;;;;20.40;99.90;;;;;;5031576;28;20269;-69
2023/10/02 02:41:38;;;;;;;;;;;20.40;99.90;;;;;;5031731;28;19928;-69
2023/10/02 02:44:06;;;;;;;;;;;20.40;99.90;;;;;;5030276;28;19905;-69
2023/10/02 02:46:32;;;;;;;;;;;20.30;99.90;;;;;;5032036;28;20043;-69
2023/10/02 02:49:00;;;;;;;;;;;20.30;99.90;;;;;;5031720;28;19948;-69
2023/10/02 02:51:26;;;;;;;;;;;20.30;99.90;;;;;;5032661;28;20070;-69
2023/10/02 02:53:52;;;;;;;;;;;20.30;99.90;;;;;;5038173;28;19904;-69
2023/10/02 02:56:22;;;;;;;;;;;20.30;99.90;;;;;;5039290;28;19912;-69
2023/10/02 02:58:49;;;;;;;;;;;20.30;99.90;;;;;;5038807;28;19912;-69
2023/10/02 03:01:29;;;;;;;;;;;20.30;99.90;;;;;;5039320;28;19912;-70
2023/10/02 03:03:56;;;;;;;;;;;20.30;99.90;;;;;;5038829;28;19905;-71
2023/10/02 03:06:22;;;;;;;;;;;20.30;99.90;;;;;;5038828;28;20321;-70
2023/10/02 03:08:49;;;;;;;;;;;20.40;99.90;;;;;;5039104;28;19920;-70
2023/10/02 03:11:19;;;;;;;;;;;20.40;99.90;;;;;;5039534;28;19905;-71
2023/10/02 03:13:49;;;;;;;;;;;20.50;99.90;;;;;;5037682;28;19912;-71
2023/10/02 03:16:18;;;;;;;;;;;20.50;99.90;;;;;;5039104;28;19905;-70
2023/10/02 03:18:45;;;;;;;;;;;20.50;99.90;;;;;;5039241;28;19952;-70
2023/10/02 03:21:15;;;;;;;;;;;20.50;99.90;;;;;;5039074;28;20288;-70
2023/10/02 03:23:42;;;;;;;;;;;20.40;99.90;;;;;;5038989;28;19905;-70
2023/10/02 03:26:21;;;;;;;;;;;20.50;99.90;;;;;;5039992;28;19948;-69
2023/10/02 03:28:48;;;;;;;;;;;20.40;99.90;;;;;;5039602;28;19913;-70
2023/10/02 03:31:17;;;;;;;;;;;20.40;99.90;;;;;;5039639;28;19916;-71
2023/10/02 03:33:43;;;;;;;;;;;20.40;99.90;;;;;;5040176;28;20230;-72
2023/10/02 03:36:10;;;;;;;;;;;20.40;99.90;;;;;;5039549;28;19992;-70
2023/10/02 03:38:43;;;;;;;;;;;20.40;99.90;;;;;;5039460;28;19991;-71
2023/10/02 03:41:10;;;;;;;;;;;20.40;99.90;;;;;;5038585;28;20003;-70
2023/10/02 03:43:43;;;;;;;;;;;20.30;99.90;;;;;;5039835;28;19959;-70
2023/10/02 03:46:14;;;;;;;;;;;20.30;99.90;;;;;;5039609;28;19905;-69
2023/10/02 03:48:40;;;;;;;;;;;20.30;99.90;;;;;;5039747;28;19993;-71
2023/10/02 03:51:09;;;;;;;;;;;20.30;99.90;;;;;;5039182;28;19916;-70
2023/10/02 03:53:36;;;;;;;;;;;20.40;99.90;;;;;;5039321;28;20376;-71
2023/10/02 03:58:51;;;;;;;;;;;20.30;99.90;;;;;;5039847;28;19959;-70
2023/10/02 04:01:29;;;;;;;;;;;20.30;99.90;;;;;;5038927;28;19905;-72
2023/10/02 04:04:11;;;;;;;;;;;20.40;99.90;;;;;;5036020;28;19905;-71
2023/10/02 04:06:37;;;;;;;;;;;20.40;99.90;;;;;;5035635;28;19999;-70
2023/10/02 04:09:23;;;;;;;;;;;20.50;99.90;;;;;;5035783;28;20000;-71
2023/10/02 04:11:54;;;;;;;;;;;20.50;99.90;;;;;;5036240;28;19928;-72
2023/10/02 04:14:33;;;;;;;;;;;20.60;99.90;;;;;;5035644;28;20276;-70
2023/10/02 04:19:49;;;;;;;;;;;20.50;99.90;;;;;;5036068;28;19905;-71
2023/10/02 04:22:19;;;;;;;;;;;20.50;99.90;;;;;;5035920;28;19909;-71
2023/10/02 04:24:58;;;;;;;;;;;20.50;99.90;;;;;;5034625;28;19905;-70
2023/10/02 04:32:35;;;;;;;;;;;20.50;99.90;;;;;;5035820;28;19905;-70
2023/10/02 04:35:03;;;;;;;;;;;20.50;99.90;;;;;;5036364;28;19909;-70
2023/10/02 04:37:31;;;;;;;;;;;20.50;99.90;;;;;;5035954;28;19905;-71
2023/10/02 04:42:29;;;;;;;;;;;20.50;99.90;;;;;;5035981;28;20368;-70
2023/10/02 04:44:57;;;;;;;;;;;20.50;99.90;;;;;;5035937;28;19905;-71
2023/10/02 04:47:27;;;;;;;;;;;20.50;99.90;;;;;;5035976;28;19959;-71
2023/10/02 04:55:27;;;;;;;;;;;20.50;99.90;;;;;;5035512;28;19951;-71
2023/10/02 04:57:55;;;;;;;;;;;20.60;99.90;;;;;;5034024;28;19913;-71
2023/10/02 05:00:32;;;;;;;;;;;20.60;99.90;;;;;;5035504;28;19909;-72
2023/10/02 05:03:09;;;;;;;;;;;20.60;99.90;;;;;;5035117;28;19905;-71
2023/10/02 05:05:49;;;;;;;;;;;20.70;99.90;;;;;;5035484;28;20327;-70
2023/10/02 05:08:19;;;;;;;;;;;20.70;99.90;;;;;;5033327;28;19913;-70
2023/10/02 05:10:47;;;;;;;;;;;20.70;99.90;;;;;;5034792;28;19960;-70
2023/10/02 05:13:13;;;;;;;;;;;20.80;99.90;;;;;;5035131;28;19939;-70
2023/10/02 05:16:06;;;;;;;;;;;20.80;99.90;;;;;;5034418;28;19955;-71
2023/10/02 05:18:25;;;;;;;;;;;20.70;99.90;;;;;;5034667;28;19905;-71
2023/10/02 05:20:53;;;;;;;;;;;20.60;99.90;;;;;;5034745;28;20051;-70
2023/10/02 05:23:21;;;;;;;;;;;20.60;99.90;;;;;;5034533;28;20348;-70
2023/10/02 05:25:47;;;;;;;;;;;20.60;99.90;;;;;;5032968;28;19912;-71
2023/10/02 05:28:14;;;;;;;;;;;20.60;99.90;;;;;;5031737;28;20014;-71
2023/10/02 05:30:43;;;;;;;;;;;20.60;99.90;;;;;;5031650;28;19956;-71
2023/10/02 05:33:15;;;;;;;;;;;20.60;99.90;;;;;;5033656;28;19988;-71
2023/10/02 05:35:45;;;;;;;;;;;20.60;99.90;;;;;;5033486;28;19909;-70
2023/10/02 05:38:16;;;;;;;;;;;20.90;99.90;;;;;;5032745;28;19905;-70
2023/10/02 05:40:47;;;;;;;;;;;21.30;99.90;;;;;;5033328;28;19959;-70
2023/10/02 05:43:17;;;;;;;;;;;21.80;99.90;;;;;;5032756;28;19996;-71
2023/10/02 05:50:53;;;;;;;;;;;22.40;99.90;;;;;;5031709;28;20031;-70
2023/10/02 05:53:34;;;;;;;;;;;22.60;99.90;;;;;;5030123;28;20227;-70
2023/10/02 05:58:36;;;;;;;;;;;22.50;99.90;;;;;;5031424;28;19988;-70
2023/10/02 06:01:05;;;;;;;;;;;22.90;99.90;;;;;;5031581;28;19905;-71
2023/10/02 06:03:34;;;;;;;;;;;23.20;99.90;;;;;;5031571;28;19921;-71
2023/10/02 06:06:15;;;;;;;;;;;23.60;99.90;;;;;;5029970;28;19905;-72
2023/10/02 06:08:48;;;;;;;;;;;23.30;99.90;;;;;;5031217;28;19913;-70
2023/10/02 06:11:26;;;;;;;;;;;23.70;99.90;;;;;;5031648;28;19940;-71
2023/10/02 06:13:55;;;;;;;;;;;24.00;99.90;;;;;;5031974;28;19909;-70
2023/10/02 06:16:23;;;;;;;;;;;24.00;99.90;;;;;;5031991;28;19915;-70
2023/10/02 06:19:00;;;;;;;;;;;24.20;99.90;;;;;;5032241;28;20338;-70
2023/10/02 06:24:21;;;;;;;;;;;24.90;99.90;;;;;;5032419;28;20034;-69
2023/10/02 06:26:58;;;;;;;;;;;25.10;99.90;;;;;;5031949;28;20381;-70
2023/10/02 06:29:25;;;;;;;;;;;25.50;99.90;;;;;;5032460;28;20281;-71
2023/10/02 06:31:58;;;;;;;;;;;26.20;99.90;;;;;;5032726;28;19905;-71
2023/10/02 06:34:25;;;;;;;;;;;26.40;99.90;;;;;;5032099;28;19995;-71
2023/10/02 06:37:02;;;;;;;;;;;26.80;99.90;;;;;;5031822;28;19905;-71
2023/10/02 06:39:29;;;;;;;;;;;26.40;99.90;;;;;;5032003;28;20349;-71
2023/10/02 06:42:04;;;;;;;;;;;26.40;99.90;;;;;;5030584;28;19963;-70
2023/10/02 06:44:38;;;;;;;;;;;26.90;99.90;;;;;;5030876;28;19905;-72
2023/10/02 06:47:11;;;;;;;;;;;27.40;99.90;;;;;;5032016;28;20330;-70
2023/10/02 06:49:39;;;;;;;;;;;27.30;99.90;;;;;;5031437;28;19917;-70
2023/10/02 06:52:16;;;;;;;;;;;27.20;99.90;;;;;;5032371;28;19912;-71
2023/10/02 06:54:43;;;;;;;;;;;27.60;99.90;;;;;;5031868;28;20357;-69
2023/10/02 06:57:11;;;;;;;;;;;28.40;99.90;;;;;;5030484;28;19991;-71
2023/10/02 06:59:38;;;;;;;;;;;28.80;99.90;;;;;;5031753;28;19912;-71
2023/10/02 07:02:06;;;;;;;;;;;29.30;99.90;;;;;;5030477;28;19905;-70
2023/10/02 07:04:35;;;;;;;;;;;30.40;99.90;;;;;;5031912;28;19916;-71
2023/10/02 07:07:03;;;;;;;;;;;30.50;99.90;;;;;;5032255;28;19905;-72
2023/10/02 07:09:36;;;;;;;;;;;31.10;99.90;;;;;;5031572;28;19917;-70
2023/10/02 07:12:08;;;;;;;;;;;31.30;99.90;;;;;;5030528;28;20003;-70
2023/10/02 07:14:38;;;;;;;;;;;30.30;99.90;;;;;;5030672;28;19989;-71
2023/10/02 07:17:22;;;;;;;;;;;29.80;99.90;;;;;;5031819;28;19913;-72
2023/10/02 07:19:49;;;;;;;;;;;30.60;99.90;;;;;;5032054;28;20000;-71
2023/10/02 07:22:24;;;;;;;;;;;31.80;99.90;;;;;;5031772;28;20226;-71
2023/10/02 07:24:52;;;;;;;;;;;32.20;99.90;;;;;;5030179;28;20020;-71
2023/10/02 07:27:25;;;;;;;;;;;32.10;99.90;;;;;;5030317;28;19955;-70
2023/10/02 07:29:52;;;;;;;;;;;30.70;99.90;;;;;;5032369;28;19905;-71
2023/10/02 07:32:19;;;;;;;;;;;30.00;99.90;;;;;;5031632;28;19905;-70
2023/10/02 07:34:48;;;;;;;;;;;30.00;99.90;;;;;;5030127;28;19905;-70
2023/10/02 07:37:16;;;;;;;;;;;29.90;99.90;;;;;;5031583;28;19905;-69
2023/10/02 07:39:43;;;;;;;;;;;30.00;99.90;;;;;;5034082;28;20011;-69
2023/10/02 07:42:12;;;;;;;;;;;30.00;99.90;;;;;;5035157;28;19904;-71
2023/10/02 07:44:38;;;;;;;;;;;29.50;99.90;;;;;;5035534;28;20027;-71
2023/10/02 07:47:10;;;;;;;;;;;29.40;99.90;;;;;;5033848;28;19911;-72
2023/10/02 07:49:39;;;;;;;;;;;28.80;99.90;;;;;;5034323;28;19917;-71
2023/10/02 07:52:09;;;;;;;;;;;29.30;99.90;;;;;;5034407;28;19951;-70
2023/10/02 07:54:44;;;;;;;;;;;29.60;99.90;;;;;;5034434;28;19916;-70
2023/10/02 07:57:13;;;;;;;;;;;29.60;99.90;;;;;;5033150;28;19943;-72
2023/10/02 07:59:43;;;;;;;;;;;29.30;99.90;;;;;;5032900;28;20320;-71
2023/10/02 08:02:23;;;;;;;;;;;29.40;99.90;;;;;;5034521;28;19940;-72
2023/10/02 08:04:49;;;;;;;;;;;29.50;99.90;;;;;;5034318;28;19904;-72
2023/10/02 08:07:15;;;;;;;;;;;29.60;99.90;;;;;;5034651;28;19986;-73
2023/10/02 08:09:47;;;;;;;;;;;29.60;99.90;;;;;;5032253;28;19905;-72
2023/10/02 08:12:29;;;;;;;;;;;29.40;99.90;;;;;;5034148;28;19909;-71
2023/10/02 08:14:59;;;;;;;;;;;29.00;99.90;;;;;;5034079;28;19905;-71
2023/10/02 08:17:59;;;;;;;;;;;29.40;99.90;;;;;;5034335;28;19909;-70
2023/10/02 08:20:19;;;;;;;;;;;29.60;99.90;;;;;;5034442;28;19940;-71
2023/10/02 08:22:44;;;;;;;;;;;29.60;99.90;;;;;;5034994;28;20359;-73
2023/10/02 08:25:14;;;;;;;;;;;29.50;99.90;;;;;;5033048;28;20396;-71
2023/10/02 08:27:39;;;;;;;;;;;29.40;99.90;;;;;;5034357;28;19919;-71
2023/10/02 08:30:18;;;;;;;;;;;29.70;99.90;;;;;;5032970;28;19904;-71
2023/10/02 08:32:45;;;;;;;;;;;29.70;99.90;;;;;;5034781;28;19999;-70
2023/10/02 08:35:13;;;;;;;;;;;29.60;99.90;;;;;;5034543;28;19924;-71
2023/10/02 08:37:42;;;;;;;;;;;29.30;99.90;;;;;;5034326;28;19905;-70
2023/10/02 08:40:09;;;;;;;;;;;29.10;99.90;;;;;;5034129;28;20004;-70
2023/10/02 08:42:34;;;;;;;;;;;29.20;99.90;;;;;;5034060;28;20310;-70
2023/10/02 08:45:01;;;;;;;;;;;29.40;99.90;;;;;;5032725;28;19905;-71
2023/10/02 08:47:27;;;;;;;;;;;29.40;99.90;;;;;;5033723;28;19905;-72
2023/10/02 08:50:04;;;;;;;;;;;29.20;99.90;;;;;;5032794;28;20004;-72
2023/10/02 08:52:39;;;;;;;;;;;29.00;99.90;;;;;;5033689;28;20334;-70
2023/10/02 08:58:22;;;;;;;;;;;29.10;99.90;;;;;;5033035;28;19905;-71
2023/10/02 09:03:44;;;;;;;;;;;29.00;99.90;;;;;;5033510;28;19968;-72
2023/10/02 09:06:31;;;;;;;;;;;28.90;99.90;;;;;;5033700;28;19996;-73
2023/10/02 09:11:42;;;;;;;;;;;28.80;99.90;;;;;;5033222;28;20024;-71
2023/10/02 09:14:39;;;;;;;;;;;28.90;99.90;;;;;;5031604;28;20302;-71
2023/10/02 09:17:24;;;;;;;;;;;28.60;99.90;;;;;;5033001;28;19941;-73
2023/10/02 09:19:54;;;;;;;;;;;28.60;99.90;;;;;;5031689;28;19905;-71
2023/10/02 09:22:21;;;;;;;;;;;28.60;99.90;;;;;;5031435;28;19996;-71
2023/10/02 09:25:09;;;;;;;;;;;28.70;99.90;;;;;;5033004;28;19920;-71
2023/10/02 09:27:41;;;;;;;;;;;28.80;99.90;;;;;;5033112;28;19913;-72
2023/10/02 09:30:21;;;;;;;;;;;28.30;99.90;;;;;;5033473;28;19916;-72
2023/10/02 09:32:51;;;;;;;;;;;28.10;99.90;;;;;;5032922;28;20325;-70
2023/10/02 09:38:06;;;;;;;;;;;28.10;99.90;;;;;;5032896;28;19912;-71
2023/10/02 09:40:56;;;;;;;;;;;28.40;99.90;;;;;;5032895;28;19915;-71
2023/10/02 09:43:24;;;;;;;;;;;28.40;99.90;;;;;;5032653;28;20040;-72
2023/10/02 09:45:53;;;;;;;;;;;28.30;99.90;;;;;;5032887;28;19958;-70
2023/10/02 09:51:14;;;;;;;;;;;28.30;99.90;;;;;;5032694;28;20048;-71
2023/10/02 09:54:02;;;;;;;;;;;28.20;99.90;;;;;;5030909;28;20400;-70
2023/10/02 09:56:34;;;;;;;;;;;27.80;99.90;;;;;;5032849;28;19927;-71
2023/10/02 09:59:16;;;;;;;;;;;27.60;99.90;;;;;;5031119;28;19905;-71
2023/10/02 10:02:07;;;;;;;;;;;27.60;99.90;;;;;;5031430;28;19912;-72
2023/10/02 10:04:59;;;;;;;;;;;27.80;99.90;;;;;;5031963;28;19999;-72
2023/10/02 10:08:33;;;;;;;;;;;27.90;99.90;;;;;;5030913;28;19905;-70
2023/10/02 10:11:15;;;;;;;;;;;28.10;99.90;;;;;;5023704;28;19917;-71
2023/10/02 10:13:46;;;;;;;;;;;28.20;99.90;;;;;;5032132;28;19912;-71
2023/10/02 10:16:18;;;;;;;;;;;28.20;99.90;;;;;;5032424;28;19988;-71
2023/10/02 10:21:57;;;;;;;;;;;28.20;99.90;;;;;;5031866;28;19958;-69
2023/10/02 10:24:58;;;;;;;;;;;28.20;99.90;;;;;;5031850;28;20011;-70
2023/10/02 10:27:39;;;;;;;;;;;28.40;99.90;;;;;;5031688;28;19905;-70
2023/10/02 10:35:49;;;;;;;;;;;28.20;99.90;;;;;;5031930;28;20325;-71
2023/10/02 10:41:31;;;;;;;;;;;28.30;99.90;;;;;;5030596;28;19996;-70
2023/10/02 10:43:59;;;;;;;;;;;28.30;99.90;;;;;;5031629;28;19909;-71
2023/10/02 10:46:31;;;;;;;;;;;28.30;99.90;;;;;;5029982;28;19905;-71
2023/10/02 10:51:58;;;;;;;;;;;27.90;99.90;;;;;;5028738;28;19921;-71
2023/10/02 10:54:30;;;;;;;;;;;28.00;99.90;;;;;;5029046;28;19994;-71
2023/10/02 10:56:57;;;;;;;;;;;28.00;99.90;;;;;;5029124;28;19916;-70
2023/10/02 10:59:24;;;;;;;;;;;28.10;99.90;;;;;;5028665;28;20107;-71
2023/10/02 11:02:09;;;;;;;;;;;28.00;99.90;;;;;;5011921;28;19999;-72
2023/10/02 11:04:43;;;;;;;;;;;27.60;99.90;;;;;;5011953;28;19905;-69
2023/10/02 11:07:23;;;;;;;;;;;27.80;99.90;;;;;;5011569;28;20265;-70
2023/10/02 11:13:06;;;;;;;;;;;28.30;99.90;;;;;;5029806;28;20483;-70
2023/10/02 11:15:46;;;;;;;;;;;28.30;99.90;;;;;;5032402;28;19905;-72
2023/10/02 11:18:23;;;;;;;;;;;28.20;99.90;;;;;;5033135;28;19905;-70
2023/10/02 11:20:50;;;;;;;;;;;28.30;99.90;;;;;;5034341;28;20242;-69
2023/10/02 11:23:44;;;;;;;;;;;28.40;99.90;;;;;;5033653;28;19905;-70
2023/10/02 11:26:13;;;;;;;;;;;28.40;99.90;;;;;;5033625;28;19905;-70
2023/10/02 11:28:41;;;;;;;;;;;28.10;99.90;;;;;;5034660;28;20059;-72
2023/10/02 11:31:32;;;;;;;;;;;27.90;99.90;;;;;;5035067;28;19905;-71
2023/10/02 11:34:00;;;;;;;;;;;27.80;99.90;;;;;;5035723;28;19905;-71
2023/10/02 11:36:28;;;;;;;;;;;28.10;99.90;;;;;;5035184;28;20000;-71
2023/10/02 11:38:55;;;;;;;;;;;28.10;99.90;;;;;;5035161;28;20357;-71
2023/10/02 11:41:21;;;;;;;;;;;28.40;99.90;;;;;;5033854;28;19905;-71
2023/10/02 11:43:48;;;;;;;;;;;28.60;99.90;;;;;;5035190;28;19952;-72
2023/10/02 11:46:14;;;;;;;;;;;28.70;99.90;;;;;;5034888;28;20291;-70
2023/10/02 11:48:40;;;;;;;;;;;28.70;99.90;;;;;;5034918;28;20356;-70
2023/10/02 11:51:07;;;;;;;;;;;28.50;99.90;;;;;;5035078;28;19921;-69
2023/10/02 11:53:33;;;;;;;;;;;28.30;99.90;;;;;;5035598;28;19909;-71
2023/10/02 11:56:00;;;;;;;;;;;28.00;99.90;;;;;;5034737;28;19963;-72
2023/10/02 11:58:25;;;;;;;;;;;28.30;99.90;;;;;;5035829;28;20365;-72
2023/10/02 12:00:53;;;;;;;;;;;28.30;99.90;;;;;;5035297;28;20318;-70
2023/10/02 12:03:19;;;;;;;;;;;28.20;99.90;;;;;;5033488;28;19953;-70
2023/10/02 12:05:44;;;;;;;;;;;28.20;99.90;;;;;;5035515;28;19905;-69
2023/10/02 12:08:11;;;;;;;;;;;28.30;99.90;;;;;;5035587;28;20233;-72
2023/10/02 12:10:39;;;;;;;;;;;28.20;99.90;;;;;;5035437;28;20225;-71
2023/10/02 12:13:06;;;;;;;;;;;27.90;99.90;;;;;;5036040;28;19905;-70
2023/10/02 12:15:31;;;;;;;;;;;27.90;99.90;;;;;;5035713;28;19920;-68
2023/10/02 12:18:00;;;;;;;;;;;28.00;99.90;;;;;;5034525;28;19905;-71
2023/10/02 12:20:26;;;;;;;;;;;27.90;99.90;;;;;;5035514;28;19905;-71
2023/10/02 12:22:53;;;;;;;;;;;28.00;99.90;;;;;;5035704;28;20384;-71
2023/10/02 12:25:19;;;;;;;;;;;28.20;99.90;;;;;;5033454;28;19927;-71
2023/10/02 12:27:44;;;;;;;;;;;28.20;99.90;;;;;;5034186;28;20361;-71
2023/10/02 12:30:11;;;;;;;;;;;28.00;99.90;;;;;;5035329;28;19905;-70
2023/10/02 12:32:37;;;;;;;;;;;27.90;99.90;;;;;;5035233;28;19912;-70
2023/10/02 12:35:05;;;;;;;;;;;27.90;99.90;;;;;;5035548;28;20016;-70
2023/10/02 12:37:32;;;;;;;;;;;28.00;99.90;;;;;;5035514;28;20347;-71
2023/10/02 12:39:58;;;;;;;;;;;28.20;99.90;;;;;;5035289;28;19948;-69
2023/10/02 12:42:25;;;;;;;;;;;28.10;99.90;;;;;;5035331;28;19905;-71
2023/10/02 12:44:53;;;;;;;;;;;28.20;99.90;;;;;;5035791;28;19909;-70
2023/10/02 12:47:19;;;;;;;;;;;28.10;99.90;;;;;;5035196;28;19904;-70
2023/10/02 12:49:45;;;;;;;;;;;27.80;99.90;;;;;;5034792;28;19971;-70
2023/10/02 12:52:11;;;;;;;;;;;27.90;99.90;;;;;;5034644;28;20326;-70
2023/10/02 12:54:37;;;;;;;;;;;27.90;99.90;;;;;;5034544;28;20349;-71
2023/10/02 12:57:05;;;;;;;;;;;27.90;99.90;;;;;;5034652;28;19917;-69
2023/10/02 12:59:30;;;;;;;;;;;28.20;99.90;;;;;;5034610;28;19925;-70
2023/10/02 13:01:56;;;;;;;;;;;27.80;99.90;;;;;;5034508;28;19905;-70
2023/10/02 13:04:23;;;;;;;;;;;27.80;99.90;;;;;;5033073;28;19912;-70
2023/10/02 13:06:49;;;;;;;;;;;27.70;99.90;;;;;;5033072;28;19981;-70
2023/10/02 13:09:15;;;;;;;;;;;27.60;99.90;;;;;;5034213;28;20273;-71
2023/10/02 13:11:44;;;;;;;;;;;27.40;99.90;;;;;;5034415;28;19905;-69
2023/10/02 13:14:12;;;;;;;;;;;27.20;99.90;;;;;;5034185;28;19905;-70
2023/10/02 13:16:41;;;;;;;;;;;27.50;99.90;;;;;;5034279;28;19912;-71
2023/10/02 13:19:09;;;;;;;;;;;27.40;99.90;;;;;;5034805;28;19905;-70
2023/10/02 13:21:37;;;;;;;;;;;27.20;99.90;;;;;;5034554;28;19951;-70
2023/10/02 13:24:03;;;;;;;;;;;27.30;99.90;;;;;;5034467;28;19953;-70
2023/10/02 13:26:29;;;;;;;;;;;27.30;99.90;;;;;;5034837;28;19988;-70
2023/10/02 13:29:01;;;;;;;;;;;27.20;99.90;;;;;;5033204;28;20342;-70
2023/10/02 13:31:27;;;;;;;;;;;27.50;99.90;;;;;;5034520;28;19920;-70
2023/10/02 13:33:53;;;;;;;;;;;27.50;99.90;;;;;;5032936;28;19909;-70
2023/10/02 13:36:22;;;;;;;;;;;27.40;99.90;;;;;;5034156;28;19948;-70
2023/10/02 13:38:58;;;;;;;;;;;27.30;99.90;;;;;;5034375;28;20347;-69
2023/10/02 13:41:24;;;;;;;;;;;27.40;99.90;;;;;;5032991;28;20007;-70
2023/10/02 13:43:59;;;;;;;;;;;27.20;99.90;;;;;;5034093;28;20227;-70
2023/10/02 13:46:25;;;;;;;;;;;27.10;99.90;;;;;;5034184;28;19905;-70
2023/10/02 13:48:52;;;;;;;;;;;27.10;99.90;;;;;;5034231;28;20269;-71
2023/10/02 13:51:19;;;;;;;;;;;27.20;99.90;;;;;;5033649;28;20310;-71
2023/10/02 13:53:45;;;;;;;;;;;27.00;99.90;;;;;;5033482;28;19963;-70
2023/10/02 13:56:16;;;;;;;;;;;26.90;99.90;;;;;;5033588;28;19909;-71
2023/10/02 13:58:48;;;;;;;;;;;27.10;99.90;;;;;;5033938;28;19905;-70
2023/10/02 14:01:14;;;;;;;;;;;27.00;99.90;;;;;;5033707;28;19959;-70
2023/10/02 14:03:41;;;;;;;;;;;27.00;99.90;;;;;;5034020;28;20256;-70
2023/10/02 14:06:08;;;;;;;;;;;26.80;99.90;;;;;;5033523;28;19905;-70
2023/10/02 14:08:35;;;;;;;;;;;27.00;99.90;;;;;;5033654;28;20010;-71
2023/10/02 14:11:02;;;;;;;;;;;27.00;99.90;;;;;;5033852;28;19905;-70
2023/10/02 14:13:28;;;;;;;;;;;27.00;99.90;;;;;;5032051;28;19905;-70
2023/10/02 14:15:54;;;;;;;;;;;26.90;99.90;;;;;;5033903;28;20378;-69
2023/10/02 14:18:23;;;;;;;;;;;27.00;99.90;;;;;;5033327;28;19905;-71
2023/10/02 14:20:59;;;;;;;;;;;26.90;99.90;;;;;;5033273;28;19905;-70
2023/10/02 14:23:28;;;;;;;;;;;27.00;99.90;;;;;;5033357;28;19996;-71
2023/10/02 14:25:58;;;;;;;;;;;27.00;99.90;;;;;;5033039;28;19916;-71
2023/10/02 14:28:24;;;;;;;;;;;27.00;99.90;;;;;;5033011;28;19960;-70
2023/10/02 14:30:51;;;;;;;;;;;27.10;99.90;;;;;;5033071;28;19940;-70
2023/10/02 14:33:17;;;;;;;;;;;27.00;99.90;;;;;;5033322;28;20360;-70
2023/10/02 14:35:44;;;;;;;;;;;27.00;99.90;;;;;;5033725;28;20261;-71
2023/10/02 14:38:11;;;;;;;;;;;27.10;99.90;;;;;;5033044;28;19905;-70
2023/10/02 14:40:38;;;;;;;;;;;26.80;99.90;;;;;;5032907;28;20362;-70
2023/10/02 14:43:04;;;;;;;;;;;26.80;99.90;;;;;;5032845;28;19945;-70
2023/10/02 14:45:29;;;;;;;;;;;26.80;99.90;;;;;;5032942;28;19948;-70
2023/10/02 14:47:56;;;;;;;;;;;26.80;99.90;;;;;;5032304;28;19913;-70
2023/10/02 14:50:26;;;;;;;;;;;26.50;99.90;;;;;;5031962;28;19985;-70
2023/10/02 14:52:53;;;;;;;;;;;26.10;99.90;;;;;;5031962;28;19906;-71
2023/10/02 14:55:19;;;;;;;;;;;26.10;99.90;;;;;;5032113;28;20407;-70
2023/10/02 14:57:49;;;;;;;;;;;26.20;99.90;;;;;;5032268;28;20024;-70
2023/10/02 15:00:15;;;;;;;;;;;26.00;99.90;;;;;;5032001;28;20024;-69
2023/10/02 15:02:44;;;;;;;;;;;26.00;99.90;;;;;;5032248;28;19957;-69
2023/10/02 15:05:17;;;;;;;;;;;26.10;99.90;;;;;;5032304;28;19905;-70
2023/10/02 15:07:44;;;;;;;;;;;26.10;99.90;;;;;;5032215;28;20350;-71
2023/10/02 15:10:10;;;;;;;;;;;26.00;99.90;;;;;;5032256;28;19913;-70
2023/10/02 15:12:37;;;;;;;;;;;26.10;99.90;;;;;;5030881;28;19905;-70
2023/10/02 15:15:06;;;;;;;;;;;26.10;99.90;;;;;;5032203;28;20011;-69
2023/10/02 15:17:32;;;;;;;;;;;26.10;99.90;;;;;;5031734;28;19912;-69
2023/10/02 15:20:00;;;;;;;;;;;26.00;99.90;;;;;;5032415;28;19905;-70
2023/10/02 15:22:32;;;;;;;;;;;25.90;99.90;;;;;;5033076;28;20372;-69
2023/10/02 15:24:57;;;;;;;;;;;25.80;99.90;;;;;;5032692;28;19912;-71
2023/10/02 15:27:23;;;;;;;;;;;25.80;99.90;;;;;;5032836;28;19916;-70
2023/10/02 15:29:49;;;;;;;;;;;25.70;99.90;;;;;;5033213;28;20381;-70
2023/10/02 15:32:20;;;;;;;;;;;25.70;99.90;;;;;;5032713;28;19905;-70
2023/10/02 15:34:49;;;;;;;;;;;25.90;99.90;;;;;;5033480;28;19912;-70
2023/10/02 15:37:16;;;;;;;;;;;25.90;99.90;;;;;;5032566;28;19967;-70
2023/10/02 15:39:42;;;;;;;;;;;25.70;99.90;;;;;;5032426;28;20007;-70